Time;durP1;ratioP1;P1;durP2;ratioP2;P2;SDS_P1;SDS_P2;PMS_P1;PMS_P2;Temp;Humidity;BMP_temperature;BMP_pressure;BME280_temperature;BME280_humidity;BME280_pressure;Samples;Min_cycle;Max_cycle;Signal;HPM_P1;HPM_P2
2021/05/18 00:00:59;;;;;;;16.20;14.60;;;16.00;99.90;;;;;;5073835;28;20374;-81
2021/05/18 00:03:25;;;;;;;19.20;15.82;;;16.10;99.90;;;;;;5073470;28;20028;-81
2021/05/18 00:05:57;;;;;;;18.27;15.82;;;16.00;99.90;;;;;;5055430;28;20024;-81
2021/05/18 00:08:24;;;;;;;17.38;15.43;;;16.00;99.90;;;;;;5073586;28;20043;-81
2021/05/18 00:13:51;;;;;;;14.40;12.98;;;15.90;99.90;;;;;;5033730;28;20072;-81
2021/05/18 00:16:17;;;;;;;14.73;13.23;;;15.80;99.90;;;;;;5032188;28;20360;-81
2021/05/18 00:18:43;;;;;;;14.93;13.32;;;15.90;99.90;;;;;;5033313;28;20029;-81
2021/05/18 00:21:09;;;;;;;14.18;12.68;;;15.80;99.90;;;;;;5033515;28;20100;-81
2021/05/18 00:23:36;;;;;;;13.60;12.30;;;15.80;99.90;;;;;;5033077;28;20029;-81
2021/05/18 00:26:03;;;;;;;13.00;11.77;;;15.80;99.90;;;;;;5031943;28;20033;-81
2021/05/18 00:28:29;;;;;;;13.68;12.27;;;15.80;99.90;;;;;;5032034;28;20033;-81
2021/05/18 00:30:54;;;;;;;12.75;11.45;;;15.80;99.90;;;;;;5033516;28;20029;-81
2021/05/18 00:33:22;;;;;;;14.65;13.00;;;15.80;99.90;;;;;;5033143;28;20044;-81
2021/05/18 00:35:49;;;;;;;14.07;12.63;;;15.80;99.90;;;;;;5033412;28;20029;-80
2021/05/18 00:38:17;;;;;;;14.23;12.73;;;15.80;99.90;;;;;;5031958;28;20116;-81
2021/05/18 00:40:44;;;;;;;14.20;12.80;;;15.80;99.90;;;;;;5032075;28;20387;-80
2021/05/18 00:43:11;;;;;;;13.63;12.27;;;15.80;99.90;;;;;;5054969;28;20028;-80
2021/05/18 00:45:39;;;;;;;15.02;13.43;;;15.80;99.90;;;;;;5055040;28;20028;-80
2021/05/18 00:48:06;;;;;;;14.82;13.05;;;15.80;99.90;;;;;;5074027;28;20024;-80
2021/05/18 00:50:35;;;;;;;14.23;12.77;;;15.80;99.90;;;;;;5058407;28;20024;-81
2021/05/18 00:53:01;;;;;;;13.25;12.00;;;15.80;99.90;;;;;;5076664;28;20483;-81
2021/05/18 01:00:41;;;;;;;15.70;13.07;;;15.70;99.90;;;;;;5077124;28;20115;-81
2021/05/18 01:03:07;;;;;;;13.95;12.52;;;15.70;99.90;;;;;;5058627;28;20203;-81
2021/05/18 01:08:17;;;;;;;15.50;13.88;;;15.60;99.90;;;;;;5076597;28;20115;-80
2021/05/18 01:10:44;;;;;;;14.77;13.23;;;15.70;99.90;;;;;;5056827;28;20068;-80
2021/05/18 01:13:10;;;;;;;15.10;13.50;;;15.70;99.90;;;;;;5076293;28;20433;-80
2021/05/18 01:15:38;;;;;;;14.65;13.15;;;15.60;99.90;;;;;;5076245;28;20041;-80
2021/05/18 01:18:05;;;;;;;14.80;13.15;;;15.60;99.90;;;;;;5076147;28;20016;-80
2021/05/18 01:20:31;;;;;;;15.27;13.70;;;15.50;99.90;;;;;;5076126;28;20035;-80
2021/05/18 01:22:57;;;;;;;15.10;13.63;;;15.50;99.90;;;;;;5076143;28;20103;-80
2021/05/18 01:25:23;;;;;;;15.68;13.82;;;15.50;99.90;;;;;;5076062;28;20024;-80
2021/05/18 01:27:49;;;;;;;15.68;14.07;;;15.50;99.90;;;;;;5057960;28;20386;-80
2021/05/18 01:30:15;;;;;;;15.55;13.93;;;15.50;99.90;;;;;;5058030;28;20024;-80
2021/05/18 01:32:42;;;;;;;15.75;14.20;;;15.50;99.90;;;;;;5075420;28;20116;-80
2021/05/18 01:35:12;;;;;;;16.38;14.40;;;15.50;99.90;;;;;;5058047;28;20016;-80
2021/05/18 01:37:40;;;;;;;15.55;14.02;;;15.50;99.90;;;;;;5057928;28;20078;-80
2021/05/18 01:43:05;;;;;;;14.98;13.48;;;15.50;99.90;;;;;;4999386;28;20034;-80
2021/05/18 01:45:32;;;;;;;15.70;13.82;;;15.50;99.90;;;;;;5018048;28;20468;-80
2021/05/18 01:48:00;;;;;;;15.55;13.95;;;15.40;99.90;;;;;;5035814;28;20463;-80
2021/05/18 01:50:28;;;;;;;16.77;15.05;;;15.40;99.90;;;;;;5035684;28;20018;-80
2021/05/18 01:52:54;;;;;;;19.58;16.38;;;15.50;99.90;;;;;;5035648;28;20036;-80
2021/05/18 01:57:57;;;;;;;17.35;15.40;;;15.40;99.90;;;;;;5035542;28;20031;-80
2021/05/18 02:00:27;;;;;;;17.98;15.73;;;15.50;99.90;;;;;;5033253;28;20073;-80
2021/05/18 02:02:54;;;;;;;19.52;16.85;;;15.50;99.90;;;;;;5035260;28;20095;-80
2021/05/18 02:05:22;;;;;;;18.92;16.05;;;15.40;99.90;;;;;;5017672;28;20049;-80
2021/05/18 02:07:52;;;;;;;18.05;16.13;;;15.40;99.90;;;;;;5017430;28;20029;-80
2021/05/18 02:10:19;;;;;;;18.27;16.35;;;15.40;99.90;;;;;;5035105;28;20052;-81
2021/05/18 02:12:46;;;;;;;19.00;16.77;;;15.40;99.90;;;;;;5057291;28;20410;-80
2021/05/18 02:15:40;;;;;;;20.88;17.20;;;15.50;99.90;;;;;;5075031;28;20036;-80
2021/05/18 02:18:29;;;;;;;19.08;16.35;;;15.50;99.90;;;;;;5057073;28;20025;-80
2021/05/18 02:26:29;;;;;;;18.35;16.30;;;15.50;99.90;;;;;;5075125;28;20040;-80
2021/05/18 02:28:55;;;;;;;22.63;17.55;;;15.50;99.90;;;;;;5056860;28;20025;-80
2021/05/18 02:31:21;;;;;;;20.08;17.35;;;15.50;99.90;;;;;;5074664;28;20077;-79
2021/05/18 02:33:51;;;;;;;19.52;16.50;;;15.50;99.90;;;;;;5074443;28;20082;-80
2021/05/18 02:36:18;;;;;;;19.33;16.30;;;15.50;99.90;;;;;;5073996;28;20016;-80
2021/05/18 02:38:44;;;;;;;19.13;17.05;;;15.50;99.90;;;;;;5056162;28;20028;-80
2021/05/18 02:41:10;;;;;;;17.70;15.77;;;15.60;99.90;;;;;;5054948;28;20035;-80
2021/05/18 02:43:47;;;;;;;18.75;16.42;;;15.60;99.90;;;;;;5055596;28;20123;-80
2021/05/18 02:49:07;;;;;;;17.65;15.85;;;15.60;99.90;;;;;;5040520;28;20028;-80
2021/05/18 02:51:31;;;;;;;20.30;15.93;;;15.70;99.90;;;;;;5054770;28;20025;-80
2021/05/18 02:53:57;;;;;;;16.85;15.05;;;15.70;99.90;;;;;;5054127;28;20497;-80
2021/05/18 02:56:39;;;;;;;17.52;15.43;;;15.70;99.90;;;;;;5054147;28;20037;-80
2021/05/18 03:01:31;;;;;;;17.77;15.70;;;15.90;99.90;;;;;;5054254;28;20025;-80
2021/05/18 03:03:57;;;;;;;19.08;15.57;;;15.90;99.90;;;;;;5054467;28;20025;-80
2021/05/18 03:06:23;;;;;;;15.85;14.25;;;15.90;99.90;;;;;;5054107;28;20476;-80
2021/05/18 03:08:49;;;;;;;18.38;14.90;;;15.90;99.90;;;;;;5036112;28;20025;-80
2021/05/18 03:11:16;;;;;;;16.50;14.77;;;16.00;99.90;;;;;;5047091;28;20033;-80
2021/05/18 03:13:42;;;;;;;16.90;15.10;;;16.10;99.90;;;;;;5056048;28;20059;-80
2021/05/18 03:16:08;;;;;;;17.65;14.70;;;16.10;99.90;;;;;;5055850;28;20044;-80
2021/05/18 03:18:34;;;;;;;15.82;14.07;;;16.10;99.90;;;;;;5073975;28;20382;-80
2021/05/18 03:21:00;;;;;;;16.25;14.55;;;16.10;99.90;;;;;;5056023;28;20036;-80
2021/05/18 03:23:26;;;;;;;16.92;15.13;;;16.20;99.90;;;;;;5074228;28;20021;-80
2021/05/18 03:25:52;;;;;;;18.50;14.63;;;16.20;99.90;;;;;;5073679;28;20050;-81
2021/05/18 03:28:18;;;;;;;15.07;13.57;;;16.20;99.90;;;;;;5055945;28;20103;-81
2021/05/18 03:35:56;;;;;;;14.88;13.25;;;16.30;99.90;;;;;;5073682;28;20385;-81
2021/05/18 03:38:28;;;;;;;14.60;12.75;;;16.30;99.90;;;;;;5055745;28;20108;-82
2021/05/18 03:40:58;;;;;;;15.45;13.05;;;16.30;99.90;;;;;;5055756;28;20021;-82
2021/05/18 03:48:38;;;;;;;14.52;12.68;;;16.30;99.90;;;;;;5073899;28;20481;-79
2021/05/18 04:04:36;;;;;;;19.13;16.52;;;16.30;99.90;;;;;;5073944;28;20032;-78
2021/05/18 04:12:53;;;;;;;17.20;14.65;;;16.30;99.90;;;;;;5073351;28;20039;-77
2021/05/18 04:18:15;;;;;;;20.92;16.23;;;16.40;99.90;;;;;;5073240;28;20032;-78
2021/05/18 04:52:54;;;;;;;12.63;10.88;;;16.80;99.90;;;;;;5076627;28;20031;-77
2021/05/18 05:00:52;;;;;;;13.57;11.63;;;16.90;99.90;;;;;;5041963;28;20029;-77
2021/05/18 05:16:25;;;;;;;13.77;11.75;;;17.10;99.90;;;;;;5076473;28;20040;-80
2021/05/18 05:18:50;;;;;;;15.55;13.25;;;17.20;99.90;;;;;;5058234;28;20074;-80
2021/05/18 05:21:19;;;;;;;19.13;14.55;;;17.30;99.90;;;;;;5058182;28;20440;-80
2021/05/18 05:23:44;;;;;;;17.45;13.10;;;17.40;99.90;;;;;;5076211;28;20024;-80
2021/05/18 05:26:10;;;;;;;15.82;12.10;;;17.30;99.90;;;;;;5076014;28;20437;-82
2021/05/18 05:28:36;;;;;;;14.00;11.75;;;17.30;99.90;;;;;;5058070;28;20016;-79
2021/05/18 05:31:02;;;;;;;16.52;13.10;;;17.30;99.90;;;;;;5057132;28;20052;-78
2021/05/18 05:33:27;;;;;;;13.25;11.43;;;17.40;99.90;;;;;;5075868;28;20509;-80
2021/05/18 05:35:53;;;;;;;15.02;11.65;;;17.40;99.90;;;;;;5075639;28;20021;-79
2021/05/18 05:38:21;;;;;;;15.00;11.32;;;17.30;99.90;;;;;;5057935;28;20020;-79
2021/05/18 05:40:47;;;;;;;13.55;11.27;;;17.30;99.90;;;;;;5057874;28;20021;-79
2021/05/18 05:43:13;;;;;;;15.75;11.52;;;17.40;99.90;;;;;;5057603;28;20028;-79
2021/05/18 05:45:38;;;;;;;16.83;13.43;;;17.50;99.90;;;;;;5057874;28;20489;-80
2021/05/18 05:48:04;;;;;;;20.13;15.02;;;17.50;99.90;;;;;;5075740;28;20100;-79
2021/05/18 05:50:30;;;;;;;22.95;18.50;;;17.50;99.90;;;;;;5075592;28;20523;-79
2021/05/18 05:52:56;;;;;;;25.38;18.05;;;17.60;99.90;;;;;;5057653;28;20029;-80
2021/05/18 05:55:21;;;;;;;38.88;24.25;;;17.70;99.90;;;;;;5057555;28;20071;-82
2021/05/18 05:57:47;;;;;;;36.30;22.88;;;17.70;99.90;;;;;;5057524;28;20032;-81
2021/05/18 06:00:13;;;;;;;41.88;24.02;;;17.80;99.90;;;;;;5056196;28;20028;-81
2021/05/18 06:02:39;;;;;;;44.72;27.17;;;17.90;99.90;;;;;;5057390;28;20111;-82
2021/05/18 06:05:06;;;;;;;45.58;28.95;;;17.90;99.90;;;;;;5075398;28;20051;-81
2021/05/18 06:07:32;;;;;;;53.92;32.47;;;18.00;99.90;;;;;;5056562;28;20666;-82
2021/05/18 06:10:33;;;;;;;47.53;29.80;;;18.20;99.90;;;;;;5057149;28;20083;-82
2021/05/18 06:47:38;;;;;;;10.85;9.48;;;19.10;99.90;;;;;;5074475;28;20055;-79
2021/05/18 06:52:35;;;;;;;11.27;10.00;;;19.20;99.60;;;;;;5074687;28;20074;-79
2021/05/18 06:55:00;;;;;;;14.68;10.70;;;19.30;99.70;;;;;;5074467;28;20024;-79
2021/05/18 06:57:28;;;;;;;12.75;11.38;;;19.40;99.70;;;;;;5056358;28;20364;-79
2021/05/18 07:00:11;;;;;;;18.13;13.93;;;19.50;99.50;;;;;;5055490;28;20047;-79
2021/05/18 07:02:38;;;;;;;11.93;9.75;;;19.40;99.00;;;;;;5056263;28;20062;-78
2021/05/18 07:05:15;;;;;;;10.65;9.07;;;19.40;98.30;;;;;;5056100;28;20029;-78
2021/05/18 07:07:42;;;;;;;11.68;10.35;;;19.40;98.80;;;;;;5074022;28;20024;-79
2021/05/18 07:10:09;;;;;;;12.02;9.93;;;19.40;98.60;;;;;;5056059;28;20406;-78
2021/05/18 07:12:36;;;;;;;15.57;11.68;;;19.30;98.60;;;;;;5074268;28;20025;-79
2021/05/18 07:15:03;;;;;;;14.07;11.82;;;19.30;98.50;;;;;;5073971;28;20107;-79
2021/05/18 07:17:29;;;;;;;22.60;18.38;;;19.20;98.60;;;;;;5074056;28;20021;-78
2021/05/18 07:19:54;;;;;;;25.75;20.10;;;19.20;98.40;;;;;;5074207;28;20031;-79
2021/05/18 07:22:20;;;;;;;25.00;17.48;;;19.20;98.50;;;;;;5056071;28;20035;-79
2021/05/18 07:24:45;;;;;;;17.83;13.02;;;19.20;98.60;;;;;;5074211;28;20127;-78
2021/05/18 07:27:11;;;;;;;18.83;13.40;;;19.20;98.50;;;;;;5072445;28;20397;-77
2021/05/18 07:29:37;;;;;;;28.05;16.52;;;19.20;97.90;;;;;;5073898;28;20052;-78
2021/05/18 07:32:03;;;;;;;30.27;17.58;;;19.20;98.20;;;;;;5073073;28;20032;-77
2021/05/18 07:34:29;;;;;;;27.60;16.50;;;19.20;98.00;;;;;;5074035;28;20497;-77
2021/05/18 07:36:55;;;;;;;23.80;15.43;;;19.20;97.80;;;;;;5055608;28;20454;-77
2021/05/18 07:39:21;;;;;;;21.58;14.50;;;19.20;97.90;;;;;;5055811;28;20056;-77
2021/05/18 07:41:46;;;;;;;18.02;13.68;;;19.20;98.00;;;;;;5074028;28;20476;-77
2021/05/18 07:44:12;;;;;;;17.77;12.18;;;19.20;97.20;;;;;;5073795;28;20033;-76
2021/05/18 07:46:40;;;;;;;21.13;13.30;;;19.20;97.80;;;;;;5073567;28;20032;-77
2021/05/18 08:07:34;;;;;;;11.65;9.10;;;19.40;97.60;;;;;;5077842;28;20098;-76
2021/05/18 08:12:34;;;;;;;5.45;4.78;;;19.50;97.60;;;;;;5077782;28;20481;-76
2021/05/18 08:17:28;;;;;;;5.18;4.07;;;19.70;96.80;;;;;;5076893;28;20032;-75
2021/05/18 09:49:39;;;;;;;6.97;6.28;;;21.50;94.30;;;;;;5056568;28;20064;-76
2021/05/18 10:36:00;;;;;;;6.40;5.80;;;21.20;94.10;;;;;;5074952;28;20032;-75
2021/05/18 10:38:29;;;;;;;6.45;5.85;;;21.30;94.20;;;;;;5056129;28;20025;-76
2021/05/18 10:41:26;;;;;;;6.22;5.68;;;21.40;94.10;;;;;;5056446;28;20028;-75
2021/05/18 10:44:00;;;;;;;11.25;6.80;;;21.50;94.10;;;;;;5073739;28;20032;-74
2021/05/18 10:46:28;;;;;;;8.25;6.57;;;21.60;93.50;;;;;;5072981;28;20048;-74
2021/05/18 10:48:58;;;;;;;11.90;8.98;;;21.70;93.60;;;;;;5073357;28;20021;-74
2021/05/18 10:51:39;;;;;;;13.68;10.13;;;21.80;93.00;;;;;;5073295;28;20017;-75
2021/05/18 10:54:28;;;;;;;17.52;11.63;;;21.80;92.80;;;;;;5073401;28;20017;-75
2021/05/18 10:56:54;;;;;;;14.93;9.52;;;21.90;92.20;;;;;;5016248;28;20029;-80
2021/05/18 10:59:38;;;;;;;8.85;7.13;;;21.90;91.70;;;;;;5034071;28;20036;-76
2021/05/18 11:02:29;;;;;;;9.70;8.70;;;21.80;91.40;;;;;;5034179;28;20033;-75
2021/05/18 11:05:07;;;;;;;7.57;6.32;;;21.80;91.70;;;;;;5016460;28;20021;-83
2021/05/18 11:07:40;;;;;;;6.57;5.97;;;21.80;92.10;;;;;;5032611;28;20029;-76
2021/05/18 11:10:17;;;;;;;6.63;5.93;;;21.70;92.10;;;;;;5033903;28;20050;-78
2021/05/18 11:12:44;;;;;;;8.35;6.32;;;21.60;92.50;;;;;;5033253;28;20026;-75
2021/05/18 11:15:21;;;;;;;9.07;6.43;;;21.50;92.50;;;;;;5050952;28;20035;-78
2021/05/18 11:17:49;;;;;;;7.32;6.45;;;21.40;92.50;;;;;;5056134;28;20055;-83
2021/05/18 11:20:36;;;;;;;7.18;6.50;;;21.30;92.80;;;;;;5074049;28;20099;-74
2021/05/18 11:23:23;;;;;;;7.28;6.50;;;21.30;93.00;;;;;;5073776;28;20448;-76
2021/05/18 11:26:05;;;;;;;6.68;6.07;;;21.30;92.90;;;;;;5055194;28;20084;-79
2021/05/18 11:28:33;;;;;;;6.90;5.70;;;21.30;92.90;;;;;;5073688;28;20046;-78
2021/05/18 11:31:01;;;;;;;7.28;6.00;;;21.20;93.10;;;;;;5055492;28;20035;-81
2021/05/18 11:33:50;;;;;;;7.35;5.72;;;21.10;93.20;;;;;;5073985;28;20017;-88
2021/05/18 11:36:31;;;;;;;6.77;5.63;;;21.20;93.60;;;;;;5070486;28;20021;-77
2021/05/18 11:39:03;;;;;;;7.65;5.40;;;21.40;93.50;;;;;;5073689;28;20285;-85
2021/05/18 11:41:30;;;;;;;8.50;6.07;;;21.50;93.60;;;;;;5069301;28;20016;-75
2021/05/18 11:43:58;;;;;;;7.00;6.30;;;21.60;93.00;;;;;;5054129;28;20021;-83
2021/05/18 11:46:26;;;;;;;7.50;5.75;;;21.60;92.60;;;;;;5035878;28;20020;-80
2021/05/18 11:48:59;;;;;;;7.43;5.32;;;21.50;93.00;;;;;;5035707;28;20021;-82
2021/05/18 11:51:25;;;;;;;5.63;5.13;;;21.60;93.40;;;;;;5035989;28;20032;-79
2021/05/18 11:53:53;;;;;;;6.60;4.63;;;21.80;93.10;;;;;;5035877;28;20021;-78
2021/05/18 11:56:24;;;;;;;6.07;5.47;;;22.00;93.30;;;;;;5035807;28;20032;-87
2021/05/18 11:59:03;;;;;;;5.47;4.97;;;22.30;92.20;;;;;;5053992;28;20047;-85
2021/05/18 12:01:31;;;;;;;6.63;4.88;;;22.40;91.60;;;;;;5053768;28;20096;-82
2021/05/18 12:04:17;;;;;;;5.70;5.05;;;22.30;91.40;;;;;;5053668;28;20024;-79
2021/05/18 12:06:58;;;;;;;5.05;4.65;;;22.00;91.40;;;;;;5053564;28;20108;-88
2021/05/18 12:09:24;;;;;;;5.05;4.55;;;21.90;91.70;;;;;;5035897;28;20041;-88
2021/05/18 12:11:55;;;;;;;4.18;3.78;;;21.80;92.00;;;;;;5035636;28;20463;-83
2021/05/18 12:14:23;;;;;;;4.90;4.05;;;21.70;92.10;;;;;;5053440;28;20021;-74
2021/05/18 12:16:49;;;;;;;5.00;4.28;;;21.60;92.10;;;;;;5052938;28;20024;-84
2021/05/18 12:19:16;;;;;;;4.60;3.90;;;21.50;91.80;;;;;;5053180;28;20029;-79
2021/05/18 12:21:45;;;;;;;5.05;4.60;;;21.50;92.20;;;;;;5035292;28;20032;-78
2021/05/18 12:24:12;;;;;;;5.57;5.00;;;21.60;91.80;;;;;;5053208;28;20025;-79
2021/05/18 12:26:48;;;;;;;6.47;4.55;;;21.60;91.30;;;;;;5035572;28;20025;-89
2021/05/18 12:29:34;;;;;;;6.32;5.30;;;21.60;91.10;;;;;;5035636;28;20021;-82
2021/05/18 12:32:16;;;;;;;7.22;5.00;;;21.40;91.00;;;;;;5035543;28;20028;-73
2021/05/18 12:34:43;;;;;;;5.07;4.65;;;21.20;91.50;;;;;;5053373;28;20475;-78
2021/05/18 12:37:09;;;;;;;5.43;4.93;;;21.10;91.90;;;;;;5053132;28;20029;-79
2021/05/18 12:39:43;;;;;;;6.28;5.53;;;20.90;92.00;;;;;;5035131;28;20029;-74
2021/05/18 12:42:13;;;;;;;6.05;5.53;;;20.80;92.00;;;;;;5053222;28;20104;-81
2021/05/18 12:44:59;;;;;;;6.53;5.22;;;20.70;92.20;;;;;;5037434;28;20036;-78
2021/05/18 12:47:28;;;;;;;5.50;5.00;;;20.60;92.30;;;;;;5056699;28;20029;-78
2021/05/18 12:49:54;;;;;;;5.28;4.78;;;20.50;92.60;;;;;;5038910;28;20021;-78
2021/05/18 12:52:20;;;;;;;7.10;5.10;;;20.50;92.70;;;;;;5056758;28;20035;-86
2021/05/18 12:54:55;;;;;;;6.15;5.22;;;20.60;92.70;;;;;;5056338;28;20017;-82
2021/05/18 12:57:26;;;;;;;6.20;5.60;;;20.60;92.70;;;;;;5038786;28;20524;-89
2021/05/18 13:00:08;;;;;;;8.88;5.45;;;20.70;92.60;;;;;;5038732;28;20060;-93
2021/05/18 13:02:53;;;;;;;6.78;5.30;;;20.70;92.50;;;;;;5056903;28;20020;-82
2021/05/18 13:05:20;;;;;;;5.78;5.03;;;20.70;92.50;;;;;;5038487;28;20051;-75
2021/05/18 13:08:14;;;;;;;5.07;4.60;;;20.80;92.60;;;;;;5056256;28;20025;-85
2021/05/18 13:11:08;;;;;;;3.58;2.83;;;20.80;92.30;;;;;;5038017;28;20068;-87
2021/05/18 13:13:37;;;;;;;2.50;2.30;;;20.50;89.90;;;;;;5056670;28;20021;-87
2021/05/18 13:16:14;;;;;;;3.83;2.60;;;20.30;90.10;;;;;;5038853;28;20043;-82
2021/05/18 13:19:05;;;;;;;3.10;2.83;;;20.20;90.70;;;;;;5038763;28;20021;-81
2021/05/18 13:21:45;;;;;;;3.60;2.30;;;20.10;91.00;;;;;;5038720;28;20028;-83
2021/05/18 13:26:44;;;;;;;2.83;2.45;;;19.70;91.30;;;;;;5056374;28;20183;-83
2021/05/18 13:29:16;;;;;;;3.17;2.88;;;19.50;91.30;;;;;;5040426;28;20070;-84
2021/05/18 13:31:43;;;;;;;6.30;3.20;;;19.40;91.80;;;;;;5058129;28;20024;-78
2021/05/18 13:34:09;;;;;;;6.65;3.20;;;19.20;91.50;;;;;;5076150;28;20096;-83
2021/05/18 13:36:36;;;;;;;5.13;3.60;;;19.00;91.50;;;;;;5076002;28;20119;-83
2021/05/18 13:39:14;;;;;;;10.20;4.78;;;18.90;91.80;;;;;;5057895;28;20051;-79
2021/05/18 13:41:40;;;;;;;9.02;4.53;;;18.80;91.90;;;;;;5057952;28;20393;-85
2021/05/18 13:44:07;;;;;;;10.20;5.13;;;18.60;92.20;;;;;;5075915;28;20021;-85
2021/05/18 13:46:33;;;;;;;12.52;7.00;;;18.50;92.60;;;;;;5057580;28;20102;-85
2021/05/18 13:48:59;;;;;;;16.30;8.15;;;18.40;92.90;;;;;;5075838;28;20047;-85
2021/05/18 13:51:25;;;;;;;18.08;8.63;;;18.40;93.30;;;;;;5058119;28;20021;-85
2021/05/18 13:53:51;;;;;;;15.02;6.88;;;18.30;93.60;;;;;;5058420;28;20525;-86
2021/05/18 13:56:20;;;;;;;12.32;5.90;;;18.20;93.90;;;;;;5075203;28;20055;-85
2021/05/18 13:58:46;;;;;;;9.97;6.00;;;18.10;94.10;;;;;;5057569;28;20410;-83
2021/05/18 14:01:13;;;;;;;6.85;4.85;;;18.00;94.50;;;;;;5057811;28;20314;-84
2021/05/18 14:03:39;;;;;;;9.18;5.40;;;17.90;95.00;;;;;;5057658;28;20061;-80
2021/05/18 14:06:05;;;;;;;14.48;6.65;;;17.80;95.30;;;;;;5057452;28;20056;-81
2021/05/18 14:08:33;;;;;;;21.33;10.38;;;17.70;95.40;;;;;;5057312;28;20063;-81
2021/05/18 14:11:00;;;;;;;26.33;12.98;;;17.70;95.70;;;;;;5075102;28;20104;-80
2021/05/18 14:13:28;;;;;;;36.35;15.73;;;17.60;95.80;;;;;;5057272;28;20020;-79
2021/05/18 14:15:55;;;;;;;42.90;18.73;;;17.60;95.90;;;;;;5074421;28;20084;-79
2021/05/18 14:18:21;;;;;;;38.58;16.23;;;17.60;96.20;;;;;;5073229;28;20048;-78
2021/05/18 14:20:47;;;;;;;38.15;17.23;;;17.60;96.20;;;;;;5073611;28;20371;-77
2021/05/18 14:23:14;;;;;;;35.97;14.45;;;17.60;96.40;;;;;;5074131;28;20109;-77
2021/05/18 14:25:40;;;;;;;29.55;12.82;;;17.60;96.50;;;;;;5056146;28;20411;-77
2021/05/18 14:28:06;;;;;;;33.88;12.40;;;17.60;96.60;;;;;;5056564;28;20081;-77
2021/05/18 14:30:32;;;;;;;35.33;11.70;;;17.70;96.70;;;;;;5054827;28;20028;-77
2021/05/18 14:32:58;;;;;;;33.85;11.88;;;17.70;96.70;;;;;;5036860;28;20053;-77
2021/05/18 14:35:27;;;;;;;31.95;11.35;;;17.70;96.80;;;;;;5054436;28;20529;-77
2021/05/18 14:37:58;;;;;;;35.92;12.55;;;17.70;96.80;;;;;;5041461;28;20024;-77
2021/05/18 14:46:08;;;;;;;35.30;11.77;;;17.70;96.90;;;;;;5054853;28;20513;-78
2021/05/18 14:56:32;;;;;;;30.05;10.63;;;17.80;97.20;;;;;;5054576;28;20059;-79
2021/05/18 14:58:58;;;;;;;26.48;8.63;;;17.80;97.20;;;;;;5058408;28;20100;-79
2021/05/18 15:01:24;;;;;;;20.65;9.23;;;17.90;97.30;;;;;;5074068;28;20028;-80
2021/05/18 15:03:50;;;;;;;22.85;9.52;;;17.90;97.20;;;;;;5056215;28;20047;-79
2021/05/18 15:06:16;;;;;;;18.27;7.90;;;17.90;97.30;;;;;;5073940;28;20449;-80
2021/05/18 15:08:41;;;;;;;25.35;9.02;;;17.90;97.40;;;;;;5062194;28;20466;-80
2021/05/18 15:11:08;;;;;;;18.85;7.18;;;18.00;97.40;;;;;;5036074;28;20114;-79
2021/05/18 15:13:34;;;;;;;9.43;5.40;;;18.10;97.40;;;;;;5053682;28;20138;-79
2021/05/18 15:16:00;;;;;;;8.30;5.22;;;18.10;97.50;;;;;;5035799;28;20025;-78
2021/05/18 15:18:28;;;;;;;7.85;5.28;;;18.20;97.50;;;;;;5053526;28;20025;-78
2021/05/18 15:20:57;;;;;;;9.55;6.03;;;18.20;97.40;;;;;;5053375;28;20023;-78
2021/05/18 15:23:23;;;;;;;9.93;6.53;;;18.30;97.30;;;;;;5053443;28;20060;-76
2021/05/18 15:25:49;;;;;;;7.15;4.50;;;18.30;97.40;;;;;;5052790;28;20060;-89
2021/05/18 15:28:14;;;;;;;8.23;4.60;;;18.30;97.30;;;;;;5035107;28;20032;-77
2021/05/18 15:30:40;;;;;;;5.60;3.97;;;18.30;97.20;;;;;;5066988;28;20034;-77
2021/05/18 15:33:06;;;;;;;7.10;5.03;;;18.30;97.40;;;;;;5073305;28;20016;-77
2021/05/18 15:35:31;;;;;;;8.75;5.80;;;18.40;97.30;;;;;;5073050;28;20099;-77
2021/05/18 15:37:58;;;;;;;13.00;7.18;;;18.50;97.20;;;;;;5073344;28;20063;-77
2021/05/18 15:40:24;;;;;;;17.10;8.57;;;18.50;97.10;;;;;;5073215;28;20458;-78
2021/05/18 15:42:49;;;;;;;16.88;8.70;;;18.50;97.10;;;;;;5073013;28;20032;-78
2021/05/18 15:45:15;;;;;;;23.50;10.55;;;18.50;96.90;;;;;;5072963;28;20035;-78
2021/05/18 15:47:41;;;;;;;21.77;10.48;;;18.50;96.80;;;;;;5072979;28;20029;-81
2021/05/18 15:50:08;;;;;;;17.65;9.30;;;18.60;96.90;;;;;;5054935;28;20021;-78
2021/05/18 15:52:35;;;;;;;10.93;7.20;;;18.50;97.00;;;;;;5072034;28;20497;-78
2021/05/18 15:55:01;;;;;;;7.30;4.90;;;18.60;97.10;;;;;;5072909;28;20024;-79
2021/05/18 15:57:27;;;;;;;7.10;4.40;;;18.60;97.00;;;;;;5072906;28;20032;-81
2021/05/18 15:59:53;;;;;;;5.18;4.28;;;18.60;96.90;;;;;;5072785;28;20040;-84
2021/05/18 16:02:18;;;;;;;5.35;3.70;;;18.50;96.80;;;;;;5073034;28;20024;-78
2021/05/18 16:04:44;;;;;;;6.78;4.68;;;18.50;96.70;;;;;;5072811;28;20055;-77
2021/05/18 16:07:12;;;;;;;8.05;4.85;;;18.40;96.70;;;;;;5072795;28;20071;-78
2021/05/18 16:09:37;;;;;;;8.52;4.13;;;18.40;96.70;;;;;;5054478;28;20048;-77
2021/05/18 16:12:06;;;;;;;4.32;3.50;;;18.40;96.70;;;;;;5072505;28;20032;-78
2021/05/18 16:14:31;;;;;;;5.28;3.58;;;18.30;96.70;;;;;;5072532;28;20190;-80
2021/05/18 16:16:57;;;;;;;4.93;3.45;;;18.30;96.80;;;;;;5055171;28;20028;-77
2021/05/18 16:19:23;;;;;;;4.53;3.53;;;18.30;96.80;;;;;;5074324;28;20106;-80
2021/05/18 16:21:50;;;;;;;3.33;3.08;;;18.20;96.80;;;;;;5077069;28;20052;-75
2021/05/18 16:24:16;;;;;;;3.67;3.33;;;18.20;96.80;;;;;;5076706;28;20033;-79
2021/05/18 16:26:42;;;;;;;4.55;3.45;;;18.20;96.80;;;;;;5076393;28;20072;-80
2021/05/18 16:29:07;;;;;;;4.00;3.60;;;18.20;96.90;;;;;;5076387;28;20042;-86
2021/05/18 16:31:33;;;;;;;4.00;3.47;;;18.10;96.80;;;;;;5058534;28;20024;-85
2021/05/18 16:34:00;;;;;;;4.10;3.80;;;18.10;96.90;;;;;;5058665;28;20359;-82
2021/05/18 16:36:26;;;;;;;3.80;3.50;;;18.00;96.90;;;;;;5076672;28;20055;-81
2021/05/18 16:38:53;;;;;;;4.78;3.80;;;18.00;97.00;;;;;;5057785;28;20024;-85
2021/05/18 16:41:18;;;;;;;4.18;3.17;;;17.90;97.00;;;;;;5076170;28;20025;-81
2021/05/18 16:43:46;;;;;;;4.07;3.67;;;17.90;97.00;;;;;;5076755;28;20096;-91
2021/05/18 16:46:12;;;;;;;4.20;3.80;;;17.90;97.00;;;;;;5076429;28;20020;-82
2021/05/18 16:48:37;;;;;;;4.28;3.80;;;17.80;97.10;;;;;;5075583;28;20031;-84
2021/05/18 16:51:06;;;;;;;4.10;3.80;;;17.80;97.20;;;;;;5058547;28;20032;-82
2021/05/18 16:53:32;;;;;;;3.63;3.33;;;17.80;97.30;;;;;;5058306;28;20854;-81
2021/05/18 16:55:59;;;;;;;4.18;3.78;;;17.80;97.30;;;;;;5074923;28;20025;-81
2021/05/18 16:58:25;;;;;;;4.55;4.13;;;17.80;97.40;;;;;;5057941;28;20025;-82
2021/05/18 17:00:51;;;;;;;9.70;4.03;;;17.80;97.40;;;;;;5057984;28;20082;-80
2021/05/18 17:03:17;;;;;;;8.50;4.80;;;17.80;97.40;;;;;;5065319;28;20025;-84
2021/05/18 17:05:42;;;;;;;8.10;4.40;;;17.70;97.30;;;;;;5038180;28;20475;-83
2021/05/18 17:08:09;;;;;;;7.47;4.57;;;17.70;97.40;;;;;;5064918;28;20043;-83
2021/05/18 17:10:38;;;;;;;7.30;4.43;;;17.60;97.30;;;;;;5057603;28;20478;-83
2021/05/18 17:13:05;;;;;;;6.13;4.43;;;17.60;97.40;;;;;;5056865;28;20063;-84
2021/05/18 17:15:31;;;;;;;4.88;4.38;;;17.50;97.40;;;;;;5076207;28;20028;-84
2021/05/18 17:17:57;;;;;;;5.10;4.30;;;17.50;97.50;;;;;;5076066;28;20024;-84
2021/05/18 17:20:26;;;;;;;5.03;4.57;;;17.40;97.60;;;;;;5058111;28;20024;-83
2021/05/18 17:22:52;;;;;;;4.95;4.40;;;17.30;97.60;;;;;;5057827;28;20511;-83
2021/05/18 17:25:18;;;;;;;4.45;4.05;;;17.30;97.60;;;;;;5074741;28;20393;-83
2021/05/18 17:27:44;;;;;;;5.07;4.55;;;17.20;97.70;;;;;;5075393;28;20028;-81
2021/05/18 17:30:13;;;;;;;4.40;3.97;;;17.20;97.80;;;;;;5057205;28;20062;-81
2021/05/18 17:32:38;;;;;;;5.85;4.50;;;17.20;97.80;;;;;;5055958;28;20025;-82
2021/05/18 17:35:06;;;;;;;4.35;3.95;;;17.20;97.90;;;;;;5075046;28;20430;-81
2021/05/18 17:37:32;;;;;;;5.93;4.35;;;17.20;97.90;;;;;;5056979;28;20032;-80
2021/05/18 17:39:58;;;;;;;4.32;3.90;;;17.10;98.00;;;;;;5057487;28;20021;-81
2021/05/18 17:42:23;;;;;;;4.03;3.45;;;17.10;98.00;;;;;;5075694;28;20545;-84
2021/05/18 17:44:51;;;;;;;3.70;3.40;;;17.20;98.00;;;;;;5075948;28;20028;-85
2021/05/18 17:47:17;;;;;;;5.55;4.47;;;17.20;98.00;;;;;;5057257;28;20077;-84
2021/05/18 17:49:43;;;;;;;8.23;6.32;;;17.20;97.90;;;;;;5057868;28;20481;-84
2021/05/18 17:52:08;;;;;;;9.18;5.95;;;17.20;97.90;;;;;;5057934;28;20024;-82
2021/05/18 17:54:38;;;;;;;8.63;6.60;;;17.20;97.90;;;;;;5057890;28;20021;-82
2021/05/18 17:57:06;;;;;;;6.30;5.70;;;17.10;98.00;;;;;;5075933;28;20074;-83
2021/05/18 17:59:32;;;;;;;29.10;21.50;;;17.10;98.00;;;;;;5075714;28;20028;-81
2021/05/18 18:02:00;;;;;;;18.00;12.55;;;17.10;98.00;;;;;;5075484;28;20029;-82
2021/05/18 18:04:26;;;;;;;13.88;8.98;;;17.10;97.90;;;;;;5057555;28;20025;-82